Huvudsida
METAR-TAF:

METAR-TAF

Flygplatser :

Christchurch International Airport

Christchurch, Nya Zeeland

latitud: 43-29S, longitud: 172-33E, höjd: 38 m

Aktuellt väderrapport

Denna rapport gjordes för 40 minuter sedan, klockan 23:30 UTC
Vind 4 kt från nord/nordost, varierande mellan nord/nordväst och ost
Temperatur 26°C
Fuktighet 48%
Tryck 1016 hPa
Sikt 10 km eller mer

METAR: NZCH 242330Z AUTO 02004KT 340V090 9999 NCD 26/14 Q1016 BECMG 03015KT

Tid: 13:10 (00:10 UTC)

Väderprognos

Denna rapport gjordes för 1 timme och 10 minuter sedan, klockan 23:00 UTC
Prognos gäller från 25 kl. 00 UTC till 26 kl. 00 UTC
Vind 5 kt från nord/nordost
Sikt 10 km eller mer
Få moln på en höjd av 6000 ft
Blir
från 25 kl. 00 UTC till 25 kl. 02 UTC
Vind 15 kt från nord/nordost

TAF: NZCH 242300Z 2500/2600 02005KT 9999 FEW060 BECMG 2500/2502 02015KT

Aktuella väderrapporter och prognoser från 4000 flygplatser (METAR- och TAF-rapporter).

De tillgängliga stationerna syns som gula och röda prickar på kartan.

För musen över prickarna för att se namnen på stationerna.

Klicka sedan för att få väderrapporter och prognoser.

För att ändra kartan: Klicka på de gröna knapparna med ett svart kors på för att zooma in; den gröna knappen med ett streck på för att zooma ut; eller på de gröna pilarna för angränsande kartor.


METAR-TAF: